Time;durP1;ratioP1;P1;durP2;ratioP2;P2;SDS_P1;SDS_P2;PMS_P1;PMS_P2;Temp;Humidity;BMP_temperature;BMP_pressure;BME280_temperature;BME280_humidity;BME280_pressure;Samples;Min_cycle;Max_cycle;Signal;HPM_P1;HPM_P2
2022/09/04 03:00:45;;;;;;;1.38;0.60;;;24.40;45.10;;;;;;5977720;23;45893;31
2022/09/04 03:03:18;;;;;;;0.70;0.70;;;24.40;45.20;;;;;;4865355;29;45110;-65
2022/09/04 03:05:52;;;;;;;0.60;0.60;;;24.30;45.10;;;;;;4876559;29;45052;-66
2022/09/04 03:08:36;;;;;;;0.90;0.68;;;24.40;45.10;;;;;;4886702;28;45053;-66
2022/09/04 03:11:06;;;;;;;0.60;0.60;;;24.40;45.20;;;;;;4876940;28;45837;-66
2022/09/04 03:13:37;;;;;;;0.68;0.50;;;24.40;45.10;;;;;;4868024;29;44962;-67
2022/09/04 03:16:15;;;;;;;0.70;0.63;;;24.40;45.10;;;;;;4847352;29;44834;-66
2022/09/04 03:19:17;;;;;;;0.60;0.52;;;24.40;45.00;;;;;;4872602;28;44995;-68
2022/09/04 03:22:00;;;;;;;0.60;0.60;;;24.40;45.10;;;;;;4874496;29;44867;-66
2022/09/04 03:24:30;;;;;;;0.55;0.52;;;24.40;45.10;;;;;;4881573;28;46002;-66
2022/09/04 03:27:10;;;;;;;1.02;0.82;;;24.40;45.00;;;;;;4880889;28;44876;-68
2022/09/04 03:29:56;;;;;;;1.02;0.93;;;24.40;45.10;;;;;;4854406;29;44836;-68
2022/09/04 03:32:42;;;;;;;0.55;0.55;;;24.30;45.10;;;;;;4867985;28;45004;-66
2022/09/04 03:35:12;;;;;;;0.65;0.60;;;24.40;45.10;;;;;;4884204;28;45758;-66
2022/09/04 03:38:02;;;;;;;0.60;0.60;;;24.40;45.10;;;;;;4882588;28;45023;-66
2022/09/04 03:40:41;;;;;;;0.60;0.60;;;24.30;45.00;;;;;;4871614;29;44895;-66
2022/09/04 03:43:26;;;;;;;0.50;0.50;;;24.30;45.00;;;;;;4887897;28;45191;-67
2022/09/04 03:46:10;;;;;;;0.85;0.60;;;24.40;45.10;;;;;;4882520;28;45037;-67
2022/09/04 03:49:01;;;;;;;0.57;0.57;;;24.40;45.10;;;;;;4874180;28;44843;-66
2022/09/04 03:51:48;;;;;;;0.85;0.70;;;24.40;45.10;;;;;;4874413;29;45049;-67
2022/09/04 03:54:41;;;;;;;0.52;0.52;;;24.30;45.00;;;;;;4871486;29;45411;-68
2022/09/04 03:57:25;;;;;;;0.60;0.60;;;24.30;45.00;;;;;;4876198;29;44991;-65
2022/09/04 03:59:50;;;;;;;;;;;24.30;45.00;;;;;;4889721;28;44985;-65
2022/09/04 04:02:35;;;;;;;0.70;0.70;;;24.30;45.10;;;;;;4887981;28;45225;-66
2022/09/04 04:05:21;;;;;;;0.75;0.40;;;24.30;45.10;;;;;;4886154;29;44927;-65
2022/09/04 04:08:00;;;;;;;0.60;0.60;;;24.30;45.00;;;;;;4876902;29;46312;-65
2022/09/04 04:10:49;;;;;;;0.75;0.73;;;24.30;45.00;;;;;;4888792;29;45108;-68
2022/09/04 04:13:32;;;;;;;1.80;0.73;;;24.30;45.00;;;;;;4893818;28;45074;-66
2022/09/04 04:16:29;;;;;;;0.50;0.50;;;24.30;45.00;;;;;;4893968;28;44890;-66
2022/09/04 04:19:18;;;;;;;0.50;0.50;;;24.30;45.00;;;;;;4876003;29;48141;-66
2022/09/04 04:22:03;;;;;;;0.50;0.50;;;24.30;45.00;;;;;;4887521;28;45279;-67
2022/09/04 04:24:37;;;;;;;0.73;0.73;;;24.30;45.10;;;;;;4884977;29;45014;-66
2022/09/04 04:27:11;;;;;;;0.68;0.50;;;24.30;45.00;;;;;;4894014;28;45122;-65
2022/09/04 04:29:48;;;;;;;0.50;0.50;;;24.30;45.00;;;;;;4890620;28;46337;-67
2022/09/04 04:32:26;;;;;;;0.50;0.50;;;24.30;45.00;;;;;;4884851;28;45054;-65
2022/09/04 04:34:57;;;;;;;0.70;0.70;;;24.30;45.10;;;;;;4889889;28;44932;-68
2022/09/04 04:37:50;;;;;;;1.42;0.70;;;24.30;45.00;;;;;;4889516;28;45200;-67
2022/09/04 04:40:34;;;;;;;0.50;0.50;;;24.30;45.00;;;;;;4891813;28;46313;-68
2022/09/04 04:43:24;;;;;;;0.47;0.40;;;24.30;45.00;;;;;;4887801;28;44992;-68
2022/09/04 04:46:01;;;;;;;0.88;0.55;;;24.30;45.10;;;;;;4893232;28;44847;-66
2022/09/04 04:49:06;;;;;;;1.85;0.70;;;24.30;45.00;;;;;;4889646;29;45066;-67
2022/09/04 04:52:06;;;;;;;0.57;0.57;;;24.30;45.10;;;;;;4891342;28;46066;-66
2022/09/04 04:54:50;;;;;;;0.73;0.73;;;24.30;45.10;;;;;;4893234;28;45090;-68
2022/09/04 04:57:44;;;;;;;0.80;0.80;;;24.30;45.00;;;;;;4888531;28;45630;-68
2022/09/04 05:00:18;;;;;;;0.45;0.40;;;24.30;45.10;;;;;;4890775;29;45493;-70
2022/09/04 05:03:00;;;;;;;1.10;0.60;;;24.30;45.10;;;;;;4887725;28;46483;-66
2022/09/04 05:05:42;;;;;;;0.47;0.47;;;24.30;45.10;;;;;;4889972;28;45073;-66
2022/09/04 05:08:14;;;;;;;0.50;0.50;;;24.30;45.10;;;;;;4889356;28;44892;-66
2022/09/04 05:10:51;;;;;;;0.43;0.43;;;24.30;45.10;;;;;;4891120;28;44877;-67
2022/09/04 05:13:21;;;;;;;0.55;0.50;;;24.20;45.10;;;;;;4889353;28;45306;-68
2022/09/04 05:15:56;;;;;;;0.55;0.55;;;24.30;45.10;;;;;;4887622;28;45107;-67
2022/09/04 05:18:30;;;;;;;0.60;0.60;;;24.30;45.10;;;;;;4875878;28;44716;-67
2022/09/04 05:21:12;;;;;;;0.70;0.70;;;24.30;45.10;;;;;;4888517;28;44862;-67
2022/09/04 05:23:49;;;;;;;1.20;0.60;;;24.30;45.10;;;;;;4886359;28;46141;-69
2022/09/04 05:26:24;;;;;;;0.50;0.50;;;24.30;45.10;;;;;;4889945;29;45289;-68
2022/09/04 05:29:35;;;;;;;0.63;0.60;;;24.30;45.00;;;;;;4890492;29;44975;-68
2022/09/04 05:32:04;;;;;;;0.50;0.50;;;24.30;45.10;;;;;;4886484;28;45127;-68
2022/09/04 05:34:59;;;;;;;0.65;0.50;;;24.30;45.00;;;;;;4887767;29;45154;-68
2022/09/04 05:37:39;;;;;;;0.50;0.50;;;24.40;45.00;;;;;;4872101;28;44710;-68
2022/09/04 05:40:22;;;;;;;0.60;0.60;;;24.30;45.00;;;;;;4891508;28;45445;-67
2022/09/04 05:43:02;;;;;;;;;;;24.30;45.00;;;;;;4893676;28;45486;-68
2022/09/04 05:46:18;;;;;;;0.60;0.50;;;24.30;45.30;;;;;;4873447;28;47424;-67
2022/09/04 05:48:56;;;;;;;0.50;0.50;;;24.40;45.20;;;;;;4869309;28;45125;-67
2022/09/04 05:51:37;;;;;;;0.50;0.50;;;24.40;45.00;;;;;;4858478;29;45137;-66
2022/09/04 05:54:23;;;;;;;0.60;0.60;;;24.50;44.90;;;;;;4889092;28;45092;-65
2022/09/04 05:56:58;;;;;;;0.40;0.40;;;24.60;44.80;;;;;;4889797;28;45903;-66
2022/09/04 05:59:29;;;;;;;1.13;0.50;;;24.70;44.60;;;;;;4890242;29;44969;-65
2022/09/04 06:02:39;;;;;;;0.60;0.60;;;24.80;44.30;;;;;;4890689;28;45062;-65
2022/09/04 06:05:20;;;;;;;0.40;0.40;;;24.90;44.10;;;;;;4851719;29;45002;-66
2022/09/04 06:08:07;;;;;;;0.50;0.50;;;24.90;43.90;;;;;;4884256;28;46491;-68
2022/09/04 06:10:41;;;;;;;0.52;0.50;;;25.00;44.00;;;;;;4888243;28;44785;-67
2022/09/04 06:13:12;;;;;;;0.70;0.50;;;24.90;44.00;;;;;;4890211;28;44911;-66
2022/09/04 06:16:02;;;;;;;0.50;0.50;;;24.90;44.00;;;;;;4894086;28;45124;-67
2022/09/04 06:18:46;;;;;;;1.55;0.60;;;24.90;44.10;;;;;;4891972;28;46282;-67
2022/09/04 06:21:30;;;;;;;0.60;0.60;;;24.80;44.00;;;;;;4890324;28;44943;-68
2022/09/04 06:24:23;;;;;;;1.20;0.60;;;24.90;44.10;;;;;;4889089;28;45012;-67
2022/09/04 06:27:17;;;;;;;0.65;0.65;;;24.90;44.10;;;;;;4889050;28;45625;-66
2022/09/04 06:30:05;;;;;;;0.52;0.52;;;24.90;44.20;;;;;;4890310;28;45369;-68
2022/09/04 06:33:02;;;;;;;0.60;0.60;;;24.90;44.20;;;;;;4868372;29;44986;-66
2022/09/04 06:35:27;;;;;;;0.47;0.47;;;24.90;44.10;;;;;;4886899;28;45148;-67
2022/09/04 06:38:13;;;;;;;0.57;0.52;;;24.90;44.10;;;;;;4889479;28;44962;-66
2022/09/04 06:41:27;;;;;;;0.47;0.47;;;24.90;44.10;;;;;;4888200;28;46074;-66
2022/09/04 06:43:55;;;;;;;0.60;0.60;;;24.90;44.10;;;;;;4884120;28;46458;-65
2022/09/04 06:46:54;;;;;;;1.50;0.60;;;24.90;44.20;;;;;;4887750;28;44919;-66
2022/09/04 06:49:40;;;;;;;0.50;0.50;;;24.90;44.20;;;;;;4881226;28;45234;-66
2022/09/04 06:52:32;;;;;;;0.82;0.47;;;24.90;44.20;;;;;;4874371;28;45034;-66
2022/09/04 06:54:59;;;;;;;0.40;0.40;;;24.90;44.30;;;;;;4888873;28;44930;-67
2022/09/04 06:57:31;;;;;;;0.40;0.40;;;24.90;44.30;;;;;;4873145;29;45525;-69
2022/09/04 07:00:06;;;;;;;0.50;0.50;;;24.90;44.20;;;;;;4891351;28;45641;-67
2022/09/04 07:02:51;;;;;;;0.75;0.60;;;24.90;44.30;;;;;;4889491;28;45005;-67
2022/09/04 07:05:53;;;;;;;3.20;0.63;;;24.90;44.30;;;;;;4887828;28;45085;-65
2022/09/04 07:08:27;;;;;;;4.43;0.50;;;24.90;44.30;;;;;;4889870;28;45096;-65
2022/09/04 07:11:08;;;;;;;1.08;0.80;;;24.90;44.40;;;;;;4889290;28;44993;-69
2022/09/04 07:13:49;;;;;;;0.52;0.38;;;24.90;44.30;;;;;;4888982;28;45073;-67
2022/09/04 07:16:29;;;;;;;1.10;0.70;;;24.90;44.20;;;;;;4887975;28;45781;-67
2022/09/04 07:19:14;;;;;;;1.25;0.60;;;24.90;44.30;;;;;;4891943;28;45114;-65
2022/09/04 07:21:59;;;;;;;1.00;0.57;;;24.90;44.20;;;;;;4890762;28;45116;-68
2022/09/04 07:24:25;;;;;;;0.60;0.60;;;25.00;44.20;;;;;;4892045;28;45598;-66
2022/09/04 07:27:27;;;;;;;0.50;0.50;;;25.00;44.20;;;;;;4892218;28;44814;-66
2022/09/04 07:30:02;;;;;;;0.57;0.55;;;25.00;44.20;;;;;;4893549;29;45009;-66
2022/09/04 07:32:48;;;;;;;1.05;0.60;;;25.00;44.20;;;;;;4888473;28;45393;-66
2022/09/04 07:35:25;;;;;;;0.60;0.45;;;25.00;44.20;;;;;;4890278;28;45769;-66
2022/09/04 07:37:57;;;;;;;2.53;0.47;;;25.00;44.20;;;;;;4894311;28;44832;-65
2022/09/04 07:40:36;;;;;;;4.28;0.57;;;25.00;44.30;;;;;;4894093;28;45045;-65
2022/09/04 07:43:11;;;;;;;2.88;0.47;;;25.00;44.20;;;;;;4892000;28;46126;-66
2022/09/04 07:45:49;;;;;;;0.85;0.57;;;25.00;44.20;;;;;;4890233;28;47119;-67
2022/09/04 07:48:21;;;;;;;3.85;0.63;;;25.10;44.20;;;;;;4893534;28;44947;-66
2022/09/04 07:51:02;;;;;;;0.50;0.50;;;25.10;44.20;;;;;;4897601;28;44971;-67
2022/09/04 07:53:42;;;;;;;0.90;0.40;;;25.10;44.20;;;;;;4890910;28;45203;-67
2022/09/04 07:56:48;;;;;;;3.22;0.50;;;25.10;44.20;;;;;;4890806;28;45536;-66
2022/09/04 07:59:41;;;;;;;0.68;0.50;;;25.10;44.20;;;;;;4891407;28;45033;-66
2022/09/04 08:02:17;;;;;;;0.50;0.30;;;25.10;44.20;;;;;;4885573;29;45185;-69
2022/09/04 08:05:34;;;;;;;0.70;0.60;;;25.10;44.20;;;;;;4885539;29;44780;-67
2022/09/04 08:08:14;;;;;;;0.60;0.50;;;25.10;44.20;;;;;;4855470;29;45522;-66
2022/09/04 08:11:04;;;;;;;4.45;0.47;;;25.20;44.20;;;;;;4877610;29;45381;-67
2022/09/04 08:13:52;;;;;;;4.18;0.60;;;25.20;44.20;;;;;;4887794;29;44780;-66
2022/09/04 08:16:27;;;;;;;1.83;0.70;;;25.20;44.20;;;;;;4873694;29;45822;-67
2022/09/04 08:19:06;;;;;;;1.20;0.70;;;25.20;44.20;;;;;;4881500;28;46571;-66
2022/09/04 08:21:36;;;;;;;1.52;0.60;;;25.20;44.10;;;;;;4888517;28;44951;-68
2022/09/04 08:24:29;;;;;;;0.85;0.40;;;25.20;44.10;;;;;;4887062;29;45192;-66
2022/09/04 08:27:23;;;;;;;3.33;0.57;;;25.20;44.10;;;;;;4872183;29;45396;-67
2022/09/04 08:30:02;;;;;;;0.82;0.60;;;25.20;44.10;;;;;;4887136;29;45625;-68
2022/09/04 08:33:02;;;;;;;0.65;0.60;;;25.20;44.10;;;;;;4885480;29;45031;-67
2022/09/04 08:35:28;;;;;;;2.15;0.57;;;25.30;44.20;;;;;;4870255;29;45130;-65
2022/09/04 08:38:03;;;;;;;0.77;0.60;;;25.20;44.10;;;;;;4873733;29;45140;-67
2022/09/04 08:40:47;;;;;;;2.78;0.65;;;25.30;44.10;;;;;;4871397;29;46185;-68
2022/09/04 08:43:43;;;;;;;1.08;0.50;;;25.30;44.10;;;;;;4887659;29;44601;-67
2022/09/04 08:46:20;;;;;;;1.23;0.60;;;25.30;44.00;;;;;;4870729;29;45264;-66
2022/09/04 08:49:17;;;;;;;0.82;0.50;;;25.30;44.00;;;;;;4872727;29;44924;-67
2022/09/04 08:52:19;;;;;;;0.52;0.43;;;25.30;44.00;;;;;;4885221;29;45504;-68
2022/09/04 08:55:04;;;;;;;1.67;0.43;;;25.40;44.10;;;;;;4868981;29;46304;-68
2022/09/04 08:58:04;;;;;;;0.47;0.47;;;25.40;44.00;;;;;;4884650;28;44681;-68
2022/09/04 09:00:45;;;;;;;1.33;0.52;;;25.40;44.00;;;;;;4872408;29;45347;-68
2022/09/04 09:03:11;;;;;;;0.65;0.65;;;25.40;44.00;;;;;;4875192;29;47270;-66
2022/09/04 09:05:54;;;;;;;2.58;0.50;;;25.40;44.00;;;;;;4888971;28;44712;-67
2022/09/04 09:08:44;;;;;;;0.87;0.40;;;25.40;44.00;;;;;;4890183;29;45410;-69
2022/09/04 09:11:33;;;;;;;1.23;0.47;;;25.40;43.90;;;;;;4890249;28;45057;-67
2022/09/04 09:14:26;;;;;;;2.83;0.52;;;25.40;43.90;;;;;;4892598;28;46372;-68
2022/09/04 09:17:15;;;;;;;1.98;0.45;;;25.50;44.00;;;;;;4887319;28;45207;-69
2022/09/04 09:19:59;;;;;;;1.25;0.68;;;25.50;44.00;;;;;;4874177;28;45828;-66
2022/09/04 09:22:42;;;;;;;3.63;0.65;;;25.50;44.00;;;;;;4891964;28;45035;-68
2022/09/04 09:25:14;;;;;;;0.85;0.50;;;25.50;43.90;;;;;;4872005;28;45197;-66
2022/09/04 09:28:19;;;;;;;0.73;0.68;;;25.50;43.90;;;;;;4886860;28;45089;-67
2022/09/04 09:31:16;;;;;;;1.70;0.68;;;25.50;43.90;;;;;;4887299;28;44966;-67
2022/09/04 09:34:04;;;;;;;0.50;0.40;;;25.50;43.80;;;;;;4886512;29;44937;-67
2022/09/04 09:37:01;;;;;;;0.60;0.43;;;25.60;43.90;;;;;;4881337;29;46179;-68
2022/09/04 09:40:05;;;;;;;0.63;0.40;;;25.60;43.80;;;;;;4873651;28;44991;-67
2022/09/04 09:42:50;;;;;;;0.60;0.57;;;25.60;43.90;;;;;;4889361;28;44982;-67
2022/09/04 09:45:30;;;;;;;2.65;0.60;;;25.60;43.80;;;;;;4887266;28;45080;-67
2022/09/04 09:48:09;;;;;;;1.52;0.70;;;25.60;43.80;;;;;;4888214;28;46389;-68
2022/09/04 09:50:53;;;;;;;1.75;0.43;;;25.70;43.80;;;;;;4873180;29;45240;-67
2022/09/04 09:53:35;;;;;;;0.82;0.52;;;25.70;43.80;;;;;;4889915;28;45276;-67
2022/09/04 09:56:25;;;;;;;0.40;0.40;;;25.70;43.80;;;;;;4892938;28;45119;-67
2022/09/04 09:59:28;;;;;;;0.68;0.45;;;25.70;43.80;;;;;;4886644;28;45883;-69
2022/09/04 10:02:25;;;;;;;0.90;0.55;;;25.70;43.80;;;;;;4875146;28;45021;-67
2022/09/04 10:05:18;;;;;;;0.52;0.52;;;25.70;43.70;;;;;;4888287;28;45011;-66
2022/09/04 10:08:09;;;;;;;1.20;0.60;;;25.70;43.70;;;;;;4887696;28;44730;-68
2022/09/04 10:11:17;;;;;;;0.98;0.50;;;25.80;43.80;;;;;;4890295;28;46328;-66
2022/09/04 10:13:52;;;;;;;0.43;0.43;;;25.80;43.70;;;;;;4869519;28;44609;-67
2022/09/04 10:16:43;;;;;;;0.60;0.60;;;25.80;43.70;;;;;;4890761;28;44968;-66
2022/09/04 10:19:27;;;;;;;2.17;0.60;;;25.80;43.70;;;;;;4885375;29;44858;-66
2022/09/04 10:22:30;;;;;;;0.52;0.52;;;25.80;43.70;;;;;;4890864;28;45293;-67
2022/09/04 10:25:19;;;;;;;1.27;0.50;;;25.80;43.60;;;;;;4890134;28;45170;-67
2022/09/04 10:27:58;;;;;;;0.98;0.47;;;25.80;43.60;;;;;;4884550;29;45821;-66
2022/09/04 10:30:24;;;;;;;0.40;0.40;;;25.90;43.70;;;;;;4876226;28;45246;-66
2022/09/04 10:32:56;;;;;;;0.35;0.35;;;25.90;43.70;;;;;;4892443;23;45980;-70
2022/09/04 10:35:52;;;;;;;0.82;0.70;;;25.90;43.70;;;;;;4876912;28;45269;-74
2022/09/04 10:40:34;;;;;;;0.30;0.30;;;25.90;43.60;;;;;;4850751;29;45255;-73
2022/09/04 10:41:37;;;;;;;1.10;0.50;;;25.90;43.60;;;;;;4845197;29;45209;-76
2022/09/04 10:44:16;;;;;;;0.38;0.38;;;26.00;43.70;;;;;;4832182;29;46786;-71
2022/09/04 10:46:50;;;;;;;0.40;0.40;;;26.00;43.60;;;;;;4851223;29;45283;-77
2022/09/04 10:49:54;;;;;;;0.50;0.50;;;26.00;43.60;;;;;;4835198;29;45251;-74
2022/09/04 10:52:29;;;;;;;0.32;0.32;;;26.00;43.60;;;;;;4835451;29;45199;-76
2022/09/04 10:54:57;;;;;;;0.60;0.55;;;26.00;43.60;;;;;;4835898;29;45188;-76
2022/09/04 10:57:53;;;;;;;1.40;0.50;;;26.00;43.60;;;;;;4834762;29;45033;-76
2022/09/04 11:00:30;;;;;;;1.58;0.70;;;26.00;43.60;;;;;;4833207;29;44703;-75
2022/09/04 11:03:17;;;;;;;0.68;0.68;;;26.00;43.70;;;;;;4850634;29;45345;-74
2022/09/04 11:06:12;;;;;;;0.60;0.60;;;26.10;43.60;;;;;;4836721;29;45346;-70
2022/09/04 11:09:00;;;;;;;0.70;0.50;;;26.10;43.60;;;;;;4835283;29;45011;-69
2022/09/04 11:11:47;;;;;;;0.50;0.47;;;26.10;43.60;;;;;;4837250;29;45190;-76
2022/09/04 11:14:42;;;;;;;0.55;0.52;;;26.10;43.60;;;;;;4837704;29;45032;-74
2022/09/04 11:17:27;;;;;;;1.42;0.52;;;26.10;43.70;;;;;;4845932;29;45506;-74
2022/09/04 11:19:52;;;;;;;0.47;0.47;;;26.10;43.70;;;;;;4836548;29;45192;-76
2022/09/04 11:22:33;;;;;;;1.00;0.63;;;26.10;43.70;;;;;;4837483;29;45238;-70
2022/09/04 11:25:05;;;;;;;0.55;0.40;;;26.10;43.70;;;;;;4834999;29;45233;-68
2022/09/04 11:27:48;;;;;;;0.77;0.50;;;26.10;43.70;;;;;;4836492;29;45303;-75
2022/09/04 11:30:32;;;;;;;0.52;0.47;;;26.10;43.70;;;;;;4849907;29;45196;-70
2022/09/04 11:33:35;;;;;;;0.60;0.60;;;26.10;43.80;;;;;;4919128;23;45033;-66
2022/09/04 11:36:34;;;;;;;0.73;0.50;;;26.10;43.80;;;;;;4908360;29;44889;-66
2022/09/04 11:39:24;;;;;;;0.40;0.40;;;26.10;43.80;;;;;;4909642;29;45150;-67
2022/09/04 11:41:53;;;;;;;0.55;0.43;;;26.10;43.80;;;;;;4901421;29;45716;-66
2022/09/04 11:44:39;;;;;;;0.77;0.50;;;26.10;43.80;;;;;;4913900;28;44817;-66
2022/09/04 11:47:35;;;;;;;0.50;0.50;;;26.10;43.80;;;;;;4897998;29;45177;-66
2022/09/04 11:50:39;;;;;;;0.50;0.47;;;26.10;43.80;;;;;;4907836;28;45601;-66
2022/09/04 11:53:13;;;;;;;0.60;0.60;;;26.10;43.80;;;;;;4914332;28;44847;-67
2022/09/04 11:55:47;;;;;;;0.60;0.40;;;26.10;43.90;;;;;;4892719;29;44741;-66
2022/09/04 11:58:36;;;;;;;0.88;0.40;;;26.10;43.80;;;;;;4916554;28;44830;-66
2022/09/04 12:01:38;;;;;;;0.50;0.50;;;26.10;43.80;;;;;;4911610;29;45378;-66
2022/09/04 12:04:27;;;;;;;0.63;0.50;;;26.10;43.80;;;;;;4911895;28;44973;-67
2022/09/04 12:07:12;;;;;;;0.50;0.50;;;26.10;43.80;;;;;;4865769;28;45013;-66
2022/09/04 12:10:12;;;;;;;0.77;0.40;;;26.10;43.80;;;;;;4897733;29;44995;-67
2022/09/04 12:12:50;;;;;;;2.83;0.70;;;26.10;43.80;;;;;;4895538;28;46371;-68
2022/09/04 12:15:28;;;;;;;0.50;0.50;;;26.10;43.80;;;;;;4893429;29;44804;-66
2022/09/04 12:18:43;;;;;;;0.90;0.55;;;26.10;43.80;;;;;;4892448;29;44889;-66
2022/09/04 12:21:34;;;;;;;0.80;0.50;;;26.20;43.90;;;;;;4850906;29;45079;-67
2022/09/04 12:24:41;;;;;;;0.35;0.35;;;26.20;43.80;;;;;;4912275;28;45053;-67
2022/09/04 12:27:26;;;;;;;0.35;0.35;;;26.20;43.80;;;;;;4868699;29;44833;-67
2022/09/04 12:30:13;;;;;;;0.57;0.50;;;26.20;43.80;;;;;;4856747;29;45162;-66
2022/09/04 12:32:57;;;;;;;0.40;0.40;;;26.20;43.80;;;;;;4873014;29;44892;-66
2022/09/04 12:35:49;;;;;;;0.40;0.40;;;26.20;43.80;;;;;;4873866;29;47520;-67
2022/09/04 12:38:25;;;;;;;0.63;0.63;;;26.20;43.80;;;;;;4844874;29;44823;-66
2022/09/04 12:40:51;;;;;;;0.50;0.50;;;26.20;43.80;;;;;;4885437;29;45129;-65
2022/09/04 12:43:22;;;;;;;0.40;0.40;;;26.20;43.80;;;;;;4874016;29;45148;-68
2022/09/04 12:46:18;;;;;;;1.40;0.50;;;26.20;43.80;;;;;;4871323;29;45959;-68
2022/09/04 12:48:53;;;;;;;0.47;0.47;;;26.20;43.80;;;;;;4869816;29;45193;-68
2022/09/04 12:51:23;;;;;;;0.40;0.40;;;26.20;43.80;;;;;;4896373;29;45139;-66
2022/09/04 12:54:23;;;;;;;0.60;0.60;;;26.20;43.80;;;;;;4866594;29;44977;-64
2022/09/04 12:57:26;;;;;;;0.68;0.60;;;26.30;43.80;;;;;;4877832;29;46104;-65
2022/09/04 12:59:56;;;;;;;0.63;0.50;;;26.30;43.80;;;;;;4878414;29;44768;-66
2022/09/04 13:02:39;;;;;;;1.02;0.60;;;26.30;43.80;;;;;;4876136;29;44701;-65
2022/09/04 13:05:24;;;;;;;0.65;0.60;;;26.20;43.70;;;;;;4875456;29;44784;-66
2022/09/04 13:08:17;;;;;;;0.73;0.40;;;26.30;43.80;;;;;;4879735;29;44994;-65
2022/09/04 13:10:59;;;;;;;0.40;0.40;;;26.30;43.80;;;;;;4860318;29;44920;-67
2022/09/04 13:13:32;;;;;;;0.40;0.40;;;26.30;43.80;;;;;;4871162;29;45187;-67
2022/09/04 13:16:19;;;;;;;0.68;0.55;;;26.30;43.80;;;;;;4872156;29;44920;-65
2022/09/04 13:19:23;;;;;;;0.50;0.50;;;26.30;43.80;;;;;;4872850;29;45040;-66
2022/09/04 13:22:10;;;;;;;0.70;0.50;;;26.30;43.80;;;;;;4857016;29;45526;-66
2022/09/04 13:25:07;;;;;;;0.50;0.50;;;26.30;43.80;;;;;;4887217;29;44867;-67
2022/09/04 13:27:39;;;;;;;0.77;0.63;;;26.30;43.70;;;;;;4875379;29;44564;-67
2022/09/04 13:30:19;;;;;;;0.60;0.60;;;26.30;43.70;;;;;;4873124;29;45457;-68
2022/09/04 13:33:16;;;;;;;0.47;0.38;;;26.30;43.70;;;;;;4886805;29;44920;-68
2022/09/04 13:36:02;;;;;;;0.40;0.40;;;26.30;43.70;;;;;;4891670;29;44981;-66
2022/09/04 13:38:28;;;;;;;0.40;0.40;;;26.30;43.70;;;;;;4888962;29;45152;-68
2022/09/04 13:41:11;;;;;;;0.85;0.60;;;26.30;43.80;;;;;;4890873;29;45807;-67
2022/09/04 13:44:05;;;;;;;0.50;0.50;;;26.30;43.70;;;;;;4904917;28;44884;-69
2022/09/04 13:46:43;;;;;;;0.57;0.57;;;26.40;43.70;;;;;;4906156;29;45461;-68
2022/09/04 13:49:17;;;;;;;0.55;0.55;;;26.40;43.70;;;;;;4876165;29;44867;-66
2022/09/04 13:51:59;;;;;;;0.85;0.60;;;26.40;43.70;;;;;;4891133;29;46267;-66
2022/09/04 13:54:33;;;;;;;0.50;0.50;;;26.40;43.70;;;;;;4890354;29;44588;-67
2022/09/04 13:57:19;;;;;;;0.45;0.40;;;26.40;43.70;;;;;;4890706;29;44849;-67
2022/09/04 13:59:48;;;;;;;0.50;0.47;;;26.40;43.70;;;;;;4888924;29;45050;-67
2022/09/04 14:02:15;;;;;;;0.50;0.50;;;26.40;43.70;;;;;;4886646;29;45955;-67
2022/09/04 14:04:44;;;;;;;0.60;0.50;;;26.40;43.70;;;;;;4888028;29;44896;-67
2022/09/04 14:07:17;;;;;;;0.60;0.60;;;26.40;43.70;;;;;;4875073;29;45241;-68
2022/09/04 14:09:44;;;;;;;;;;;26.40;43.70;;;;;;4890926;29;45091;-67
2022/09/04 14:12:22;;;;;;;0.80;0.60;;;26.40;43.70;;;;;;4886793;29;47574;-68
2022/09/04 14:15:31;;;;;;;0.70;0.50;;;26.40;43.70;;;;;;4893142;29;44939;-68
2022/09/04 14:18:00;;;;;;;0.70;0.63;;;26.40;43.70;;;;;;4878380;29;44780;-66
2022/09/04 14:20:29;;;;;;;0.45;0.45;;;26.50;43.70;;;;;;4889106;29;44867;-67
2022/09/04 14:23:26;;;;;;;1.02;0.70;;;26.40;43.60;;;;;;4887585;29;46251;-67
2022/09/04 14:25:57;;;;;;;0.73;0.60;;;26.40;43.60;;;;;;4874035;29;44813;-67
2022/09/04 14:28:35;;;;;;;1.88;0.70;;;26.40;43.60;;;;;;4905341;29;44936;-68
2022/09/04 14:31:09;;;;;;;0.85;0.70;;;26.50;43.60;;;;;;4905338;29;44851;-67
2022/09/04 14:33:40;;;;;;;0.50;0.50;;;26.50;43.70;;;;;;4910140;28;45989;-67
2022/09/04 14:36:34;;;;;;;0.60;0.60;;;26.50;43.70;;;;;;4893664;29;44902;-67
2022/09/04 14:39:21;;;;;;;0.68;0.50;;;26.50;43.70;;;;;;4911099;28;45186;-67
2022/09/04 14:42:03;;;;;;;0.95;0.40;;;26.50;43.70;;;;;;4893388;29;44933;-66
2022/09/04 14:44:41;;;;;;;0.55;0.47;;;26.50;43.70;;;;;;4894714;29;44979;-67
2022/09/04 14:47:15;;;;;;;0.35;0.35;;;26.50;43.70;;;;;;4909005;28;44641;-66
2022/09/04 14:49:46;;;;;;;1.15;0.65;;;26.50;43.70;;;;;;4908555;29;44800;-67
2022/09/04 14:52:21;;;;;;;0.43;0.43;;;26.50;43.70;;;;;;4889397;28;44909;-67
2022/09/04 14:54:51;;;;;;;0.50;0.50;;;26.50;43.70;;;;;;4877842;29;45943;-66
2022/09/04 14:57:36;;;;;;;0.50;0.50;;;26.50;43.70;;;;;;4892882;28;46005;-66
2022/09/04 15:00:23;;;;;;;0.75;0.50;;;26.50;43.70;;;;;;4893655;29;44927;-66
2022/09/04 15:03:19;;;;;;;0.47;0.47;;;26.50;43.70;;;;;;4892397;29;45060;-68
2022/09/04 15:05:55;;;;;;;0.40;0.40;;;26.50;43.70;;;;;;4893655;29;45644;-66
2022/09/04 15:08:32;;;;;;;0.82;0.75;;;26.50;43.70;;;;;;4905385;28;44707;-67
2022/09/04 15:11:04;;;;;;;0.68;0.63;;;26.50;43.70;;;;;;4893091;29;44684;-67
2022/09/04 15:13:36;;;;;;;0.50;0.50;;;26.50;43.80;;;;;;4879682;28;45057;-67
2022/09/04 15:16:19;;;;;;;0.80;0.50;;;26.50;43.80;;;;;;4909555;28;45196;-67
2022/09/04 15:18:55;;;;;;;0.73;0.60;;;26.50;43.80;;;;;;4878082;29;44916;-68
2022/09/04 15:21:29;;;;;;;0.85;0.60;;;26.50;43.70;;;;;;4908984;28;44846;-67
2022/09/04 15:24:22;;;;;;;1.13;0.70;;;26.40;43.70;;;;;;4910412;28;44952;-66
2022/09/04 15:26:58;;;;;;;0.75;0.73;;;26.50;43.80;;;;;;4892845;29;45224;-68
2022/09/04 15:29:37;;;;;;;1.60;0.55;;;26.50;43.80;;;;;;4911581;28;44885;-66
2022/09/04 15:32:06;;;;;;;0.60;0.60;;;26.40;43.70;;;;;;4908258;29;45203;-68
2022/09/04 15:34:32;;;;;;;1.05;0.60;;;26.50;43.80;;;;;;4876215;29;44882;-67
2022/09/04 15:37:17;;;;;;;0.55;0.55;;;26.50;43.80;;;;;;4910206;28;45571;-66
2022/09/04 15:40:10;;;;;;;0.60;0.60;;;26.50;43.80;;;;;;4894364;29;45491;-68
2022/09/04 15:42:45;;;;;;;0.50;0.50;;;26.50;43.80;;;;;;4893185;29;44813;-69
2022/09/04 15:45:17;;;;;;;0.57;0.57;;;26.50;43.80;;;;;;4891519;28;45655;-66
2022/09/04 15:48:04;;;;;;;0.80;0.80;;;26.50;43.80;;;;;;4897111;29;45157;-65
2022/09/04 15:50:33;;;;;;;0.70;0.70;;;26.50;43.80;;;;;;4898672;29;44926;-66
2022/09/04 15:53:26;;;;;;;0.75;0.57;;;26.50;43.80;;;;;;4896977;29;45021;-66
2022/09/04 15:56:08;;;;;;;0.70;0.70;;;26.50;43.80;;;;;;4893087;29;45131;-65
2022/09/04 15:58:51;;;;;;;0.70;0.70;;;26.50;43.90;;;;;;4896334;28;46200;-68
2022/09/04 16:01:26;;;;;;;0.70;0.68;;;26.40;43.80;;;;;;4908655;28;45317;-68
2022/09/04 16:04:28;;;;;;;0.60;0.60;;;26.50;43.80;;;;;;4887089;29;45010;-68
2022/09/04 16:07:33;;;;;;;0.60;0.60;;;26.40;43.70;;;;;;4897000;29;45020;-66
2022/09/04 16:10:08;;;;;;;0.40;0.40;;;26.50;43.80;;;;;;4913745;29;45142;-68
2022/09/04 16:12:55;;;;;;;0.90;0.90;;;26.50;43.80;;;;;;4889750;29;44995;-66
2022/09/04 16:15:25;;;;;;;0.50;0.50;;;26.40;43.90;;;;;;4899249;28;45322;-66
2022/09/04 16:17:54;;;;;;;0.60;0.60;;;26.40;43.80;;;;;;4890559;29;45531;-66
2022/09/04 16:20:32;;;;;;;0.82;0.60;;;26.40;43.80;;;;;;4897410;28;45272;-67
2022/09/04 16:22:59;;;;;;;0.60;0.60;;;26.50;43.90;;;;;;4914405;28;45743;-67
2022/09/04 16:25:30;;;;;;;1.58;0.65;;;26.50;43.90;;;;;;4895490;28;45384;-68
2022/09/04 16:28:11;;;;;;;1.73;0.80;;;26.50;43.90;;;;;;4914705;28;44833;-67
2022/09/04 16:30:40;;;;;;;0.73;0.73;;;26.50;43.90;;;;;;4895012;28;46147;-66
2022/09/04 16:33:26;;;;;;;0.60;0.60;;;26.40;43.80;;;;;;4909281;28;45137;-67
2022/09/04 16:35:56;;;;;;;0.55;0.55;;;26.40;43.80;;;;;;4894932;28;44885;-67
2022/09/04 16:38:25;;;;;;;0.95;0.70;;;26.50;44.50;;;;;;4889923;28;44688;-66
2022/09/04 16:40:56;;;;;;;0.60;0.60;;;26.40;43.80;;;;;;4895300;29;45182;-67
2022/09/04 16:43:26;;;;;;;0.70;0.70;;;26.40;43.80;;;;;;4888193;28;44854;-67
2022/09/04 16:46:24;;;;;;;0.70;0.70;;;26.50;43.90;;;;;;4908770;28;44903;-66
2022/09/04 16:49:02;;;;;;;0.70;0.57;;;26.50;43.90;;;;;;4890281;29;45651;-66
2022/09/04 16:51:37;;;;;;;0.95;0.80;;;26.50;43.80;;;;;;4910830;28;45439;-68
2022/09/04 16:54:16;;;;;;;0.60;0.60;;;26.50;43.90;;;;;;4880393;29;44971;-66
2022/09/04 16:57:11;;;;;;;0.80;0.70;;;26.50;43.80;;;;;;4908060;28;44820;-67
2022/09/04 16:59:51;;;;;;;0.52;0.52;;;26.50;43.80;;;;;;4908346;28;44870;-67
2022/09/04 17:02:42;;;;;;;0.52;0.52;;;26.50;43.90;;;;;;4903966;28;45940;-66
2022/09/04 17:05:48;;;;;;;0.52;0.52;;;26.50;43.90;;;;;;4897850;29;46182;-66
2022/09/04 17:08:38;;;;;;;0.60;0.60;;;26.50;43.90;;;;;;4910989;28;44924;-65
2022/09/04 17:11:09;;;;;;;0.70;0.70;;;26.50;43.90;;;;;;4912469;28;44834;-65